Time;durP1;ratioP1;P1;durP2;ratioP2;P2;SDS_P1;SDS_P2;PMS_P1;PMS_P2;Temp;Humidity;BMP_temperature;BMP_pressure;BME280_temperature;BME280_humidity;BME280_pressure;Samples;Min_cycle;Max_cycle;Signal;HPM_P1;HPM_P2
2021/09/10 00:00:29;;;;;;;10.65;6.60;;;;;;;20.83;61.22;99646.91;1088087;54;20038;-83
2021/09/10 00:01:42;;;;;;;9.75;6.78;;;;;;;20.84;61.18;99643.13;1088081;54;20049;-83
2021/09/10 00:02:43;;;;;;;8.88;6.43;;;;;;;20.88;60.62;99637.03;1088453;54;20022;-82
2021/09/10 00:04:09;;;;;;;9.02;6.05;;;;;;;20.76;61.11;99643.41;1088603;54;20110;-83
2021/09/10 00:05:34;;;;;;;9.40;6.50;;;;;;;20.77;60.94;99642.38;1088447;54;20043;-82
2021/09/10 00:06:36;;;;;;;7.90;6.55;;;;;;;20.73;61.05;99634.66;1088468;54;20096;-85
2021/09/10 00:08:01;;;;;;;9.52;6.28;;;;;;;20.75;61.31;99641.75;1088467;54;20018;-82
2021/09/10 00:09:03;;;;;;;8.57;5.97;;;;;;;20.77;61.33;99637.75;1088421;54;20021;-82
2021/09/10 00:10:44;;;;;;;10.50;6.20;;;;;;;20.72;61.75;99643.00;1091009;46;20019;-82
2021/09/10 00:11:48;;;;;;;10.30;6.72;;;;;;;20.73;61.33;99642.78;1090398;39;20634;-81
2021/09/10 00:13:35;;;;;;;9.65;6.82;;;;;;;20.63;62.48;99638.91;1088423;54;20087;-81
2021/09/10 00:14:37;;;;;;;9.80;6.75;;;;;;;20.64;61.74;99646.00;1088322;54;20034;-82
2021/09/10 00:15:46;;;;;;;9.63;6.55;;;;;;;20.63;61.92;99642.44;1088462;54;20011;-82
2021/09/10 00:16:47;;;;;;;10.15;7.20;;;;;;;20.59;61.95;99638.50;1088357;54;20034;-81
2021/09/10 00:18:34;;;;;;;8.98;6.72;;;;;;;20.51;62.64;99644.19;1088501;54;20029;-83
2021/09/10 00:19:38;;;;;;;9.35;6.57;;;;;;;20.46;62.44;99650.28;1088096;54;20026;-82
2021/09/10 00:20:42;;;;;;;10.85;7.20;;;;;;;20.49;62.46;99662.59;1088401;54;20635;-83
2021/09/10 00:22:06;;;;;;;11.73;6.50;;;;;;;20.42;62.59;99655.31;1088468;54;20037;-81
2021/09/10 00:23:08;;;;;;;10.32;6.93;;;;;;;20.43;62.53;99642.59;1088500;54;20738;-82
2021/09/10 00:24:12;;;;;;;9.70;6.43;;;;;;;20.43;62.28;99648.00;1088512;54;20026;-82
2021/09/10 00:25:14;;;;;;;9.93;7.25;;;;;;;20.41;62.53;99656.34;1088437;54;20042;-82
2021/09/10 00:28:07;;;;;;;10.90;7.35;;;;;;;20.21;63.15;99653.78;1088411;54;20014;-83
2021/09/10 00:29:09;;;;;;;9.00;7.03;;;;;;;20.18;63.42;99656.09;1088526;54;20088;-83
2021/09/10 00:30:53;;;;;;;12.88;7.07;;;;;;;20.14;63.91;99657.56;1088804;39;20856;-83
2021/09/10 00:31:55;;;;;;;11.13;7.07;;;;;;;20.09;63.79;99655.50;1088427;54;20019;-83
2021/09/10 00:33:10;;;;;;;13.35;7.95;;;;;;;20.01;63.85;99659.31;1089294;46;20078;-82
2021/09/10 00:34:11;;;;;;;10.48;6.72;;;;;;;20.05;63.54;99657.81;1088473;54;20046;-83
2021/09/10 00:35:28;;;;;;;8.38;6.47;;;;;;;20.00;63.71;99663.09;1088493;54;20074;-82
2021/09/10 00:36:30;;;;;;;10.70;7.15;;;;;;;20.01;63.85;99664.75;1088483;54;20041;-83
2021/09/10 00:37:34;;;;;;;9.52;7.35;;;;;;;20.04;63.41;99666.19;1088519;54;20525;-83
2021/09/10 00:38:36;;;;;;;8.18;6.50;;;;;;;20.08;63.45;99670.13;1088449;54;20086;-82
2021/09/10 00:39:41;;;;;;;7.78;6.28;;;;;;;20.12;63.22;99673.25;1088507;54;20034;-81
2021/09/10 00:40:44;;;;;;;9.80;6.35;;;;;;;20.14;63.18;99666.56;1088408;54;20034;-83
2021/09/10 00:44:14;;;;;;;8.50;6.32;;;;;;;20.03;63.82;99669.94;1088361;54;20026;-82
2021/09/10 00:45:18;;;;;;;8.85;5.63;;;;;;;20.01;63.90;99670.19;1088426;54;20035;-83
2021/09/10 00:49:51;;;;;;;10.05;6.78;;;;;;;20.01;63.51;99669.31;1088413;54;20041;-82
2021/09/10 00:50:56;;;;;;;9.90;6.22;;;;;;;19.95;63.89;99665.59;1088470;54;20030;-82
2021/09/10 00:52:01;;;;;;;8.40;6.53;;;;;;;19.99;63.66;99672.25;1088505;54;20026;-83
2021/09/10 00:53:03;;;;;;;7.68;6.38;;;;;;;20.00;63.72;99665.78;1090778;46;20035;-81
2021/09/10 00:54:35;;;;;;;7.25;6.00;;;;;;;19.98;64.24;99661.66;1089225;46;20090;-83
2021/09/10 00:55:38;;;;;;;9.65;6.78;;;;;;;19.97;63.84;99657.25;1088480;54;20038;-82
2021/09/10 00:57:01;;;;;;;9.02;6.35;;;;;;;19.90;64.74;99673.56;1088513;54;20030;-82
2021/09/10 00:58:03;;;;;;;8.15;6.28;;;;;;;19.94;64.16;99669.34;1088487;54;20817;-83
2021/09/10 01:04:38;;;;;;;8.02;6.05;;;;;;;19.78;64.81;99660.63;1088369;54;20025;-84
2021/09/10 01:05:41;;;;;;;7.65;6.40;;;;;;;19.83;64.50;99667.31;1088432;54;20671;-83
2021/09/10 01:06:47;;;;;;;7.10;5.80;;;;;;;19.85;64.34;99659.75;1088341;54;20022;-82
2021/09/10 01:07:50;;;;;;;7.45;6.00;;;;;;;19.87;64.40;99672.13;1088386;54;20038;-82
2021/09/10 01:09:13;;;;;;;7.90;6.10;;;;;;;19.83;64.48;99668.13;1088363;54;20395;-83
2021/09/10 01:10:15;;;;;;;7.63;6.05;;;;;;;19.84;64.32;99677.13;1088329;54;20030;-81
2021/09/10 01:12:01;;;;;;;9.18;6.85;;;;;;;19.79;65.02;99673.16;1088345;54;20027;-82
2021/09/10 01:13:03;;;;;;;8.82;6.13;;;;;;;19.75;64.58;99677.31;1088347;54;20019;-83
2021/09/10 01:20:38;;;;;;;8.68;6.00;;;;;;;19.71;65.08;99665.25;1087879;54;20034;-82
2021/09/10 01:25:03;;;;;;;11.00;6.53;;;;;;;19.70;64.97;99665.44;1088233;54;20034;-82
2021/09/10 01:26:10;;;;;;;9.18;6.75;;;;;;;19.73;64.83;99663.16;1088200;54;20086;-82
2021/09/10 01:27:11;;;;;;;9.32;6.50;;;;;;;19.82;64.65;99660.22;1088308;54;20043;-82
2021/09/10 01:29:00;;;;;;;8.18;6.13;;;;;;;19.83;64.54;99667.31;1088167;54;20026;-81
2021/09/10 01:30:04;;;;;;;8.75;6.03;;;;;;;19.82;64.77;99668.34;1088177;54;20043;-82
2021/09/10 01:31:16;;;;;;;11.00;6.63;;;;;;;19.77;65.31;99658.16;1088328;54;20042;-83
2021/09/10 01:32:18;;;;;;;7.93;6.10;;;;;;;19.84;64.67;99666.25;1088441;54;20044;-83
2021/09/10 01:33:28;;;;;;;9.57;6.80;;;;;;;19.87;64.71;99663.13;1088699;46;20041;-82
2021/09/10 01:34:30;;;;;;;8.73;5.45;;;;;;;19.89;64.75;99656.44;1088275;54;20022;-82
2021/09/10 01:36:17;;;;;;;9.02;6.10;;;;;;;19.87;64.73;99660.41;1088321;54;20046;-83
2021/09/10 01:37:18;;;;;;;10.27;6.15;;;;;;;19.83;64.70;99659.16;1088279;54;20038;-82
2021/09/10 21:57:13;;;;;;;8.05;6.75;;;;;;;21.24;71.26;99902.84;1078483;53;52668;-81
2021/09/10 21:58:18;;;;;;;8.70;7.00;;;;;;;21.16;71.42;99901.25;1087842;54;20036;-84
2021/09/10 21:59:22;;;;;;;8.07;6.57;;;;;;;21.14;71.48;99901.44;1088344;54;20049;-84
2021/09/10 22:00:30;;;;;;;6.70;5.97;;;;;;;21.13;71.33;99899.75;1088372;54;20015;-83
2021/09/10 22:09:40;;;;;;;6.90;5.78;;;;;;;20.86;72.22;99910.78;1088193;47;20045;-84
2021/09/10 22:22:15;;;;;;;14.25;11.15;;;;;;;20.39;74.54;99921.78;1100781;39;21069;-84
2021/09/10 22:23:17;;;;;;;9.18;8.27;;;;;;;20.56;74.07;99916.69;1088791;54;20045;-84
2021/09/10 22:37:45;;;;;;;9.10;7.55;;;;;;;20.72;73.49;99920.84;1082535;54;20022;-82
2021/09/10 22:38:51;;;;;;;;;;;;;;;20.61;74.60;99923.38;1088569;54;20758;-82
2021/09/10 22:44:10;;;;;;;7.03;6.32;;;;;;;20.72;74.26;99917.28;1088568;54;20002;-85
2021/09/10 23:04:03;;;;;;;8.70;7.60;;;;;;;20.60;73.66;99933.41;1087749;54;20031;-84
2021/09/10 23:05:06;;;;;;;8.18;7.38;;;;;;;20.57;73.80;99923.81;1088612;54;20047;-84
2021/09/10 23:06:12;;;;;;;9.85;8.07;;;;;;;20.69;73.58;99920.44;1092511;46;20015;-83
2021/09/10 23:07:13;;;;;;;7.63;6.53;;;;;;;20.65;73.45;99930.03;1088679;54;20023;-86
2021/09/10 23:08:26;;;;;;;8.10;7.15;;;;;;;20.61;73.63;99923.38;1088674;54;20079;-84
2021/09/10 23:09:28;;;;;;;8.07;7.07;;;;;;;20.58;73.74;99924.66;1088659;54;20054;-84
2021/09/10 23:10:42;;;;;;;10.43;8.00;;;;;;;20.56;73.92;99926.75;1088639;54;20038;-85
2021/09/10 23:11:44;;;;;;;9.15;8.15;;;;;;;20.62;73.53;99931.31;1088606;54;20670;-82
